createdAt,value
2019-04-03T00:00:30.773Z,13.83
2019-04-03T00:03:02.714Z,13.37
2019-04-03T00:05:35.948Z,12.43
2019-04-03T00:08:07.617Z,13.27
2019-04-03T00:10:39.008Z,13.33
2019-04-03T00:13:11.318Z,13.43
2019-04-03T00:15:44.839Z,13.97
2019-04-03T00:18:16.975Z,14.27
2019-04-03T00:20:49.161Z,12.37
2019-04-03T00:23:22.379Z,12.13
2019-04-03T00:25:54.347Z,13.10
2019-04-03T00:28:25.770Z,12.77
2019-04-03T00:30:57.345Z,14.47
2019-04-03T00:33:29.669Z,13.37
2019-04-03T00:36:02.089Z,13.90
2019-04-03T00:38:33.644Z,13.63
2019-04-03T00:41:05.634Z,13.47
2019-04-03T00:43:37.150Z,13.67
2019-04-03T00:46:08.565Z,13.37
2019-04-03T00:48:40.045Z,13.17
2019-04-03T00:51:11.580Z,13.97
2019-04-03T00:53:43.017Z,13.17
2019-04-03T00:56:14.446Z,13.70
2019-04-03T00:58:45.898Z,13.13
2019-04-03T01:01:18.510Z,14.40
2019-04-03T01:03:50.251Z,13.30
2019-04-03T01:06:21.826Z,13.60
2019-04-03T01:08:53.639Z,13.17
2019-04-03T01:11:25.348Z,14.47
2019-04-03T01:13:57.033Z,12.83
2019-04-03T01:16:29.252Z,12.27
2019-04-03T01:19:00.960Z,13.03
2019-04-03T01:21:32.708Z,13.67
2019-04-03T01:24:07.675Z,13.67
2019-04-03T01:26:40.182Z,13.63
2019-04-03T01:29:12.590Z,14.90
2019-04-03T01:31:44.916Z,13.53
2019-04-03T01:34:17.817Z,15.37
2019-04-03T01:36:49.352Z,15.10
2019-04-03T01:39:21.287Z,13.73
2019-04-03T01:41:52.814Z,14.10
2019-04-03T01:44:25.060Z,13.17
2019-04-03T01:46:57.765Z,14.47
2019-04-03T01:49:29.778Z,14.07
2019-04-03T01:52:01.497Z,14.40
2019-04-03T01:54:33.689Z,15.10
2019-04-03T01:57:06.484Z,14.27
2019-04-03T01:59:38.385Z,15.20
2019-04-03T02:02:10.840Z,15.40
2019-04-03T02:04:43.034Z,15.27
2019-04-03T02:07:15.131Z,15.13
2019-04-03T02:09:47.011Z,15.00
2019-04-03T02:12:19.783Z,16.03
2019-04-03T02:14:51.976Z,16.77
2019-04-03T02:17:24.090Z,15.23
2019-04-03T02:19:56.995Z,15.13
2019-04-03T02:22:29.571Z,15.47
2019-04-03T02:25:02.176Z,15.23
2019-04-03T02:27:33.873Z,15.93
2019-04-03T02:30:06.399Z,15.80
2019-04-03T02:32:37.806Z,16.40
2019-04-03T02:35:09.952Z,15.10
2019-04-03T02:37:41.545Z,14.43
2019-04-03T02:40:14.239Z,15.57
2019-04-03T02:42:45.636Z,16.13
2019-04-03T02:45:17.178Z,15.37
2019-04-03T02:47:48.822Z,14.97
2019-04-03T02:50:25.509Z,16.10
2019-04-03T02:52:58.906Z,16.67
2019-04-03T02:55:30.337Z,16.43
2019-04-03T02:58:01.825Z,15.47
2019-04-03T03:00:33.889Z,15.60
2019-04-03T03:03:05.516Z,14.87
2019-04-03T03:05:37.089Z,14.60
2019-04-03T03:08:09.570Z,15.50
2019-04-03T03:10:41.930Z,16.03
2019-04-03T03:13:13.347Z,16.10
2019-04-03T03:15:45.395Z,17.30
2019-04-03T03:18:17.239Z,15.63
2019-04-03T03:23:09.071Z,16.63
2019-04-03T03:25:41.268Z,16.37
2019-04-03T03:28:14.785Z,16.67
2019-04-03T03:30:57.892Z,17.70
2019-04-03T03:33:37.469Z,16.40
2019-04-03T03:36:07.262Z,16.60
2019-04-03T03:38:59.644Z,16.47
2019-04-03T03:41:31.398Z,17.87
2019-04-03T03:44:03.126Z,17.00
2019-04-03T03:46:35.131Z,17.23
2019-04-03T03:49:07.125Z,17.17
2019-04-03T03:51:39.452Z,16.10
2019-04-03T03:54:12.020Z,16.87
2019-04-03T03:56:45.796Z,14.97
2019-04-03T03:59:18.934Z,17.80
2019-04-03T04:01:50.755Z,16.73
2019-04-03T04:04:22.320Z,16.00
2019-04-03T04:06:53.929Z,15.10
2019-04-03T04:09:25.736Z,16.80
2019-04-03T04:11:59.039Z,16.80
2019-04-03T04:14:44.862Z,16.80
2019-04-03T04:17:18.444Z,15.37
2019-04-03T04:19:50.460Z,16.03
2019-04-03T04:22:26.648Z,15.60
2019-04-03T04:24:59.578Z,17.87
2019-04-03T04:27:33.382Z,16.93
2019-04-03T04:30:04.320Z,15.83
2019-04-03T04:32:35.761Z,15.33
2019-04-03T04:35:10.361Z,16.57
2019-04-03T04:37:40.847Z,15.93
2019-04-03T04:40:12.504Z,16.23
2019-04-03T04:42:44.200Z,16.27
2019-04-03T04:45:15.789Z,16.40
2019-04-03T04:47:47.217Z,15.63
2019-04-03T04:50:24.256Z,16.67
2019-04-03T04:52:58.070Z,15.37
2019-04-03T04:55:30.598Z,15.50
2019-04-03T04:58:04.671Z,16.13
2019-04-03T05:00:35.370Z,17.20
2019-04-03T05:03:06.785Z,18.67
2019-04-03T05:05:38.277Z,18.43
2019-04-03T05:08:09.646Z,18.20
2019-04-03T05:10:41.160Z,19.27
2019-04-03T05:13:15.254Z,17.27
2019-04-03T05:15:45.890Z,18.07
2019-04-03T05:18:17.331Z,18.93
2019-04-03T05:20:50.744Z,18.93
2019-04-03T05:23:23.895Z,17.90
2019-04-03T05:25:56.172Z,18.87
2019-04-03T05:28:27.809Z,17.40
2019-04-03T05:30:59.200Z,18.60
2019-04-03T05:33:30.736Z,17.87
2019-04-03T05:36:02.339Z,18.40
2019-04-03T05:38:33.744Z,19.13
2019-04-03T05:41:05.984Z,18.60
2019-04-03T05:43:37.779Z,17.73
2019-04-03T05:46:09.521Z,19.00
2019-04-03T05:48:41.405Z,18.70
2019-04-03T05:51:12.881Z,19.37
2019-04-03T05:53:44.330Z,18.07
2019-04-03T05:56:16.058Z,18.90
2019-04-03T05:58:55.515Z,19.03
2019-04-03T06:01:20.638Z,16.53
2019-04-03T06:03:52.070Z,18.93
2019-04-03T06:06:23.540Z,18.57
2019-04-03T06:08:56.554Z,19.07
2019-04-03T06:11:28.093Z,18.53
2019-04-03T06:13:59.706Z,18.13
2019-04-03T06:16:31.306Z,17.73
2019-04-03T06:19:03.001Z,17.87
2019-04-03T06:21:34.978Z,17.90
2019-04-03T06:24:06.631Z,16.77
2019-04-03T06:26:38.636Z,16.93
2019-04-03T06:29:10.217Z,17.13
2019-04-03T06:31:41.931Z,18.10
2019-04-03T06:34:13.318Z,18.03
2019-04-03T06:36:44.960Z,16.40
2019-04-03T06:39:16.480Z,17.17
2019-04-03T06:41:47.920Z,16.77
2019-04-03T06:44:20.575Z,17.33
2019-04-03T06:46:54.029Z,17.70
2019-04-03T06:49:26.732Z,18.27
2019-04-03T06:51:58.099Z,17.07
2019-04-03T06:54:31.174Z,17.30
2019-04-03T06:57:02.480Z,16.37
2019-04-03T06:59:33.869Z,15.90
2019-04-03T07:02:05.288Z,17.17
2019-04-03T07:04:38.344Z,16.50
2019-04-03T07:07:09.735Z,16.83
2019-04-03T07:09:41.230Z,16.33
2019-04-03T07:12:15.711Z,16.43
2019-04-03T07:14:45.976Z,14.93
2019-04-03T07:17:18.377Z,15.67
2019-04-03T07:19:49.786Z,15.07
2019-04-03T07:22:21.230Z,15.83
2019-04-03T07:24:52.912Z,15.33
2019-04-03T07:27:24.414Z,15.43
2019-04-03T07:29:55.981Z,16.80
2019-04-03T07:32:27.406Z,14.90
2019-04-03T07:34:58.853Z,15.57
2019-04-03T07:37:30.432Z,15.33
2019-04-03T07:40:04.618Z,15.43
2019-04-03T07:42:37.160Z,15.60
2019-04-03T07:45:09.034Z,16.07
2019-04-03T07:47:40.541Z,15.03
2019-04-03T07:50:12.184Z,15.23
2019-04-03T07:52:43.696Z,15.00
2019-04-03T07:55:15.240Z,14.93
2019-04-03T07:57:46.728Z,15.47
2019-04-03T08:00:18.613Z,16.00
2019-04-03T08:02:50.197Z,15.20
2019-04-03T08:05:22.210Z,16.43
2019-04-03T08:07:54.065Z,15.43
2019-04-03T08:10:25.469Z,15.13
2019-04-03T08:12:59.575Z,15.13
2019-04-03T08:15:30.253Z,15.83
2019-04-03T08:18:02.750Z,17.43
2019-04-03T08:20:34.358Z,15.23
2019-04-03T08:23:06.342Z,17.27
2019-04-03T08:25:38.180Z,16.03
2019-04-03T08:28:09.700Z,15.27
2019-04-03T08:30:41.168Z,14.20
2019-04-03T08:33:17.047Z,14.33
2019-04-03T08:35:45.810Z,13.83
2019-04-03T08:38:17.309Z,13.23
2019-04-03T08:40:51.452Z,13.40
2019-04-03T08:43:22.101Z,13.07
2019-04-03T08:45:53.549Z,12.03
2019-04-03T08:48:25.042Z,13.57
2019-04-03T08:50:58.173Z,11.67
2019-04-03T08:53:30.094Z,10.77
2019-04-03T08:56:01.540Z,10.60
2019-04-03T08:58:33.023Z,10.97
2019-04-03T09:01:05.327Z,10.87
2019-04-03T09:03:37.013Z,10.83
2019-04-03T09:06:08.461Z,10.70
2019-04-03T09:08:40.236Z,10.37
2019-04-03T09:11:11.736Z,9.63
2019-04-03T09:13:43.173Z,11.33
2019-04-03T09:16:14.632Z,9.53
2019-04-03T09:18:46.393Z,10.43
2019-04-03T09:21:17.937Z,10.43
2019-04-03T09:23:49.506Z,11.03
2019-04-03T09:26:21.065Z,9.90
2019-04-03T09:28:52.487Z,10.50
2019-04-03T09:31:24.056Z,9.83
2019-04-03T09:33:56.991Z,15.90
2019-04-03T09:36:28.806Z,9.40
2019-04-03T09:39:00.366Z,10.23
2019-04-03T09:41:31.921Z,11.63
2019-04-03T09:44:03.473Z,10.50
2019-04-03T09:46:34.917Z,9.47
2019-04-03T09:49:07.581Z,9.97
2019-04-03T09:51:39.681Z,10.13
2019-04-03T09:54:11.123Z,10.73
2019-04-03T09:56:56.106Z,10.67
2019-04-03T09:59:16.365Z,9.60
2019-04-03T10:01:48.792Z,10.83
2019-04-03T10:04:21.439Z,10.40
2019-04-03T10:06:53.104Z,11.43
2019-04-03T10:09:24.763Z,10.30
2019-04-03T10:11:56.238Z,10.53
2019-04-03T10:14:28.959Z,8.60
2019-04-03T10:17:00.852Z,8.80
2019-04-03T10:19:32.634Z,9.73
2019-04-03T10:22:04.579Z,10.10
2019-04-03T10:24:36.041Z,8.57
2019-04-03T10:27:10.782Z,9.30
2019-04-03T10:29:40.973Z,8.70
2019-04-03T10:32:12.710Z,9.97
2019-04-03T10:34:44.629Z,7.97
2019-04-03T10:37:16.215Z,8.27
2019-04-03T10:39:47.604Z,8.53
2019-04-03T10:42:19.286Z,7.17
2019-04-03T10:44:51.262Z,9.30
2019-04-03T10:47:25.301Z,7.50
2019-04-03T10:49:56.026Z,7.33
2019-04-03T10:52:27.393Z,8.20
2019-04-03T10:54:59.067Z,8.13
2019-04-03T10:57:33.199Z,8.70
2019-04-03T11:00:03.734Z,7.97
2019-04-03T11:02:35.516Z,7.57
2019-04-03T11:05:08.073Z,7.53
2019-04-03T11:07:39.479Z,7.63
2019-04-03T11:10:11.389Z,8.00
2019-04-03T11:12:43.279Z,6.43
2019-04-03T11:15:15.360Z,6.67
2019-04-03T11:17:49.371Z,6.67
2019-04-03T11:20:21.289Z,14.13
2019-04-03T11:23:04.439Z,7.20
2019-04-03T11:25:27.469Z,6.53
2019-04-03T11:27:59.917Z,8.13
2019-04-03T11:30:32.359Z,6.77
2019-04-03T11:33:03.801Z,6.03
2019-04-03T11:35:35.284Z,8.37
2019-04-03T11:38:14.199Z,6.77
2019-04-03T11:40:40.646Z,6.27
2019-04-03T11:43:12.046Z,7.20
2019-04-03T11:45:43.549Z,6.73
2019-04-03T11:48:17.310Z,6.67
2019-04-03T11:50:48.937Z,7.20
2019-04-03T11:53:20.478Z,7.37
2019-04-03T11:55:52.064Z,7.10
2019-04-03T11:58:23.692Z,8.50
2019-04-03T12:00:55.365Z,9.43
2019-04-03T12:03:30.256Z,11.43
2019-04-03T12:06:03.603Z,11.07
2019-04-03T12:08:35.183Z,10.77
2019-04-03T12:11:07.452Z,12.13
2019-04-03T12:16:10.524Z,11.07
2019-04-03T12:18:42.212Z,13.63
2019-04-03T12:21:14.807Z,14.33
2019-04-03T12:23:47.969Z,11.07
2019-04-03T12:26:20.862Z,11.47
2019-04-03T12:28:54.863Z,11.20
2019-04-03T12:31:26.668Z,12.40
2019-04-03T12:34:03.312Z,12.87
2019-04-03T12:36:34.664Z,13.50
2019-04-03T12:39:13.547Z,12.67
2019-04-03T12:41:45.252Z,12.27
2019-04-03T12:44:19.298Z,12.13
2019-04-03T12:46:51.715Z,11.93
2019-04-03T12:49:23.625Z,12.07
2019-04-03T12:51:55.873Z,11.00
2019-04-03T12:54:27.245Z,10.10
2019-04-03T12:57:01.550Z,10.27
2019-04-03T12:59:32.368Z,10.77
2019-04-03T13:02:03.847Z,10.27
2019-04-03T13:04:35.797Z,10.03
2019-04-03T13:07:07.438Z,10.13
2019-04-03T13:09:39.104Z,10.00
2019-04-03T13:12:10.748Z,9.33
2019-04-03T13:14:42.160Z,11.43
2019-04-03T13:17:15.253Z,8.20
2019-04-03T13:19:47.225Z,8.10
2019-04-03T13:22:19.178Z,8.80
2019-04-03T13:24:51.643Z,8.70
2019-04-03T13:27:24.462Z,9.00
2019-04-03T13:29:56.180Z,8.57
2019-04-03T13:32:27.571Z,9.37
2019-04-03T13:34:59.507Z,8.90
2019-04-03T13:37:31.033Z,8.03
2019-04-03T13:40:05.641Z,8.70
2019-04-03T13:42:35.722Z,9.17
2019-04-03T13:45:08.203Z,7.87
2019-04-03T13:47:41.886Z,8.23
2019-04-03T13:50:13.287Z,8.07
2019-04-03T13:52:49.216Z,6.90
2019-04-03T13:55:35.050Z,6.90
2019-04-03T13:58:05.828Z,6.80
2019-04-03T14:00:37.345Z,10.97
2019-04-03T14:03:09.058Z,7.00
2019-04-03T14:05:42.647Z,7.50
2019-04-03T14:08:13.713Z,7.07
2019-04-03T14:10:45.189Z,6.60
2019-04-03T14:13:16.837Z,6.80
2019-04-03T14:15:48.321Z,6.33
2019-04-03T14:18:20.753Z,5.83
2019-04-03T14:20:55.325Z,5.47
2019-04-03T14:23:29.589Z,6.33
2019-04-03T14:26:05.597Z,5.40
2019-04-03T14:28:35.972Z,7.10
2019-04-03T14:31:07.465Z,5.37
2019-04-03T14:33:44.103Z,7.07
2019-04-03T14:36:12.606Z,6.17
2019-04-03T14:38:44.108Z,7.30
2019-04-03T14:41:19.882Z,5.90
2019-04-03T14:43:51.465Z,7.37
2019-04-03T14:46:23.115Z,7.07
2019-04-03T14:48:58.365Z,7.23
2019-04-03T14:51:29.367Z,6.60
2019-04-03T14:54:01.058Z,5.93
2019-04-03T14:56:33.394Z,5.80
2019-04-03T14:59:09.043Z,6.73
2019-04-03T15:01:54.791Z,6.37
2019-04-03T15:04:26.405Z,6.20
2019-04-03T15:07:03.503Z,6.07
2019-04-03T15:09:32.047Z,6.23
2019-04-03T15:12:04.558Z,6.00
2019-04-03T15:14:37.326Z,6.73
2019-04-03T15:17:09.201Z,5.77
2019-04-03T15:19:41.293Z,6.63
2019-04-03T15:22:13.221Z,5.53
2019-04-03T15:24:45.064Z,6.73
2019-04-03T15:27:16.917Z,6.60
2019-04-03T15:29:51.200Z,5.63
2019-04-03T15:32:43.501Z,6.33
2019-04-03T15:35:20.981Z,6.13
2019-04-03T15:37:53.668Z,6.00
2019-04-03T15:40:26.389Z,6.37
2019-04-03T15:43:00.284Z,7.10
2019-04-03T15:45:32.193Z,6.20
2019-04-03T15:48:03.804Z,6.00
2019-04-03T15:50:38.156Z,6.07
2019-04-03T15:53:08.777Z,8.13
2019-04-03T15:55:40.424Z,5.70
2019-04-03T15:58:12.079Z,6.20
2019-04-03T16:00:43.873Z,6.53
2019-04-03T16:03:17.574Z,6.37
2019-04-03T16:05:49.717Z,5.77
2019-04-03T16:08:21.124Z,5.77
2019-04-03T16:10:57.195Z,6.23
2019-04-03T16:13:27.698Z,15.67
2019-04-03T16:16:00.895Z,6.10
2019-04-03T16:18:32.541Z,7.47
2019-04-03T16:21:04.191Z,5.47
2019-04-03T16:23:38.145Z,6.20
2019-04-03T16:26:10.233Z,5.60
2019-04-03T16:28:41.966Z,4.93
2019-04-03T16:31:14.013Z,5.00
2019-04-03T16:33:45.674Z,10.33
2019-04-03T16:36:17.787Z,4.90
2019-04-03T16:38:49.683Z,4.70
2019-04-03T16:41:21.271Z,5.47
2019-04-03T16:43:54.830Z,5.43
2019-04-03T16:46:27.093Z,6.47
2019-04-03T16:49:06.457Z,5.90
2019-04-03T16:51:39.083Z,6.53
2019-04-03T16:54:12.666Z,6.83
2019-04-03T16:56:44.377Z,6.30
2019-04-03T16:59:15.837Z,6.07
2019-04-03T17:01:49.981Z,6.37
2019-04-03T17:04:26.081Z,6.87
2019-04-03T17:06:54.671Z,7.13
2019-04-03T17:09:26.127Z,7.70
2019-04-03T17:11:57.570Z,7.90
2019-04-03T17:14:28.977Z,7.10
2019-04-03T17:17:01.850Z,7.47
2019-04-03T17:19:33.349Z,8.00
2019-04-03T17:22:07.102Z,7.93
2019-04-03T17:24:43.529Z,8.50
2019-04-03T17:27:12.005Z,7.93
2019-04-03T17:29:45.709Z,7.47
2019-04-03T17:32:18.439Z,8.77
2019-04-03T17:34:49.984Z,8.53
2019-04-03T17:37:22.838Z,8.80
2019-04-03T17:39:55.516Z,8.33
2019-04-03T17:42:26.964Z,8.67
2019-04-03T17:45:01.880Z,8.63
2019-04-03T17:47:34.958Z,9.70
2019-04-03T17:50:06.917Z,9.87
2019-04-03T17:52:38.340Z,11.43
2019-04-03T17:55:11.152Z,9.00
2019-04-03T17:57:45.314Z,11.57
2019-04-03T18:00:20.523Z,10.10
2019-04-03T18:02:50.878Z,9.80
2019-04-03T18:05:25.365Z,10.00
2019-04-03T18:07:58.502Z,9.83
2019-04-03T18:10:29.600Z,10.23
2019-04-03T18:13:01.216Z,12.17
2019-04-03T18:15:33.052Z,12.23
2019-04-03T18:18:04.577Z,9.60
2019-04-03T18:20:35.960Z,11.37
2019-04-03T18:23:07.384Z,11.00
2019-04-03T18:25:38.820Z,10.53
2019-04-03T18:28:10.517Z,10.33
2019-04-03T18:30:42.435Z,11.23
2019-04-03T18:33:17.043Z,10.43
2019-04-03T18:35:48.576Z,10.67
2019-04-03T18:38:20.354Z,11.03
2019-04-03T18:40:51.801Z,10.67
2019-04-03T18:43:23.658Z,11.67
2019-04-03T18:45:56.153Z,13.53
2019-04-03T18:48:30.163Z,11.30
2019-04-03T18:51:01.864Z,11.40
2019-04-03T18:53:35.053Z,12.13
2019-04-03T18:56:10.354Z,11.33
2019-04-03T18:58:43.949Z,10.67
2019-04-03T19:01:17.077Z,11.57
2019-04-03T19:03:49.241Z,11.23
2019-04-03T19:06:20.722Z,11.80
2019-04-03T19:08:52.264Z,11.80
2019-04-03T19:11:23.909Z,12.13
2019-04-03T19:13:55.445Z,11.37
2019-04-03T19:16:29.757Z,11.47
2019-04-03T19:19:07.851Z,10.83
2019-04-03T19:21:33.605Z,11.07
2019-04-03T19:24:05.349Z,12.23
2019-04-03T19:26:37.528Z,11.90
2019-04-03T19:29:09.325Z,11.67
2019-04-03T19:31:41.726Z,12.80
2019-04-03T19:34:17.764Z,11.50
2019-04-03T19:36:46.669Z,11.80
2019-04-03T19:39:18.706Z,14.13
2019-04-03T19:41:52.161Z,18.23
2019-04-03T19:44:23.970Z,14.07
2019-04-03T19:46:55.749Z,12.33
2019-04-03T19:49:28.172Z,12.10
2019-04-03T19:52:00.029Z,12.40
2019-04-03T19:54:33.976Z,10.60
2019-04-03T19:57:06.012Z,10.33
2019-04-03T19:59:37.930Z,10.40
2019-04-03T20:02:10.212Z,10.93
2019-04-03T20:04:42.985Z,12.37
2019-04-03T20:07:14.469Z,11.00
2019-04-03T20:09:46.316Z,10.50
2019-04-03T20:12:17.806Z,10.47
2019-04-03T20:14:57.996Z,9.70
2019-04-03T20:17:24.532Z,10.67
2019-04-03T20:19:57.866Z,10.00
2019-04-03T20:22:29.566Z,10.07
2019-04-03T20:25:01.037Z,10.90
2019-04-03T20:27:32.602Z,9.80
2019-04-03T20:30:04.986Z,10.37
2019-04-03T20:32:40.064Z,9.97
2019-04-03T20:35:10.141Z,9.47
2019-04-03T20:37:43.954Z,10.43
2019-04-03T20:40:19.055Z,10.03
2019-04-03T20:42:52.227Z,9.47
2019-04-03T20:45:24.169Z,10.70
2019-04-03T20:47:57.423Z,10.77
2019-04-03T20:50:29.108Z,10.53
2019-04-03T20:53:00.553Z,10.13
2019-04-03T20:55:32.073Z,9.80
2019-04-03T20:58:05.862Z,10.43
2019-04-03T21:00:36.968Z,10.70
2019-04-03T21:03:08.352Z,11.07
2019-04-03T21:05:39.972Z,10.77
2019-04-03T21:08:11.417Z,10.57
2019-04-03T21:10:44.178Z,10.97
2019-04-03T21:13:15.692Z,11.10
2019-04-03T21:15:47.152Z,11.73
2019-04-03T21:18:20.706Z,11.10
2019-04-03T21:20:54.736Z,11.50
2019-04-03T21:23:26.534Z,12.03
2019-04-03T21:26:00.570Z,11.80
2019-04-03T21:28:31.991Z,12.10
2019-04-03T21:31:03.546Z,12.83
2019-04-03T21:33:35.707Z,12.70
2019-04-03T21:36:07.672Z,12.90
2019-04-03T21:38:42.264Z,12.37
2019-04-03T21:41:13.932Z,12.40
2019-04-03T21:43:45.464Z,12.13
2019-04-03T21:46:17.018Z,12.70
2019-04-03T21:48:49.508Z,12.87
2019-04-03T21:51:21.376Z,11.70
2019-04-03T21:53:55.952Z,12.50
2019-04-03T21:56:26.477Z,14.17
2019-04-03T21:58:57.890Z,11.70
2019-04-03T22:01:29.727Z,12.70
2019-04-03T22:04:02.104Z,13.07
2019-04-03T22:06:35.237Z,13.53
2019-04-03T22:09:11.902Z,13.53
2019-04-03T22:11:44.726Z,13.00
2019-04-03T22:14:18.305Z,13.00
2019-04-03T22:16:51.341Z,13.27
2019-04-03T22:19:27.394Z,13.00
2019-04-03T22:21:57.336Z,13.67
2019-04-03T22:24:28.686Z,14.10
2019-04-03T22:27:00.132Z,13.67
2019-04-03T22:29:32.570Z,13.77
2019-04-03T22:32:04.288Z,13.77
2019-04-03T22:34:36.128Z,14.37
2019-04-03T22:37:07.793Z,13.07
2019-04-03T22:39:40.269Z,13.43
2019-04-03T22:42:14.600Z,14.27
2019-04-03T22:44:47.732Z,14.67
2019-04-03T22:47:18.751Z,13.90
2019-04-03T22:49:50.323Z,14.13
2019-04-03T22:52:23.334Z,13.87
2019-04-03T22:54:57.268Z,14.40
2019-04-03T22:57:28.789Z,14.30
2019-04-03T23:00:00.224Z,14.07
2019-04-03T23:02:32.356Z,14.70
2019-04-03T23:05:04.323Z,14.10
2019-04-03T23:07:36.519Z,13.97
2019-04-03T23:10:08.142Z,14.67
2019-04-03T23:12:39.701Z,15.03
2019-04-03T23:15:12.133Z,13.43
2019-04-03T23:17:44.822Z,14.23
2019-04-03T23:20:16.996Z,15.27
2019-04-03T23:22:48.496Z,14.33
2019-04-03T23:25:20.006Z,15.37
2019-04-03T23:27:51.558Z,14.87
2019-04-03T23:30:23.490Z,16.37
2019-04-03T23:32:55.140Z,16.13
2019-04-03T23:35:26.807Z,15.27
2019-04-03T23:37:58.619Z,16.57
2019-04-03T23:40:31.046Z,16.93
2019-04-03T23:43:02.585Z,16.20
2019-04-03T23:45:34.313Z,16.33
2019-04-03T23:48:06.020Z,15.20
2019-04-03T23:50:37.602Z,16.97
2019-04-03T23:53:09.138Z,15.30
2019-04-03T23:55:40.592Z,14.37
2019-04-03T23:58:13.111Z,15.13
